Time;durP1;ratioP1;P1;durP2;ratioP2;P2;SDS_P1;SDS_P2;PMS_P1;PMS_P2;Temp;Humidity;BMP_temperature;BMP_pressure;BME280_temperature;BME280_humidity;BME280_pressure;Samples;Min_cycle;Max_cycle;Signal;HPM_P1;HPM_P2
2021/09/27 00:00:46;;;;;;;13.52;8.27;;;16.70;91.70;;;;;;5030564;28;20029;-82
2021/09/27 00:03:12;;;;;;;10.20;7.85;;;16.60;91.60;;;;;;5051597;28;20497;-82
2021/09/27 00:05:38;;;;;;;10.35;8.15;;;16.60;91.90;;;;;;5050282;28;20508;-83
2021/09/27 00:08:05;;;;;;;9.00;7.43;;;16.60;91.60;;;;;;5049643;28;20036;-83
2021/09/27 00:10:41;;;;;;;12.48;8.27;;;16.60;91.60;;;;;;5050313;28;20490;-83
2021/09/27 00:13:08;;;;;;;9.55;7.80;;;16.60;91.60;;;;;;5033175;28;20074;-82
2021/09/27 00:15:38;;;;;;;10.90;7.78;;;16.60;91.60;;;;;;5050624;28;20501;-82
2021/09/27 00:18:05;;;;;;;13.25;8.48;;;16.60;91.60;;;;;;5051052;28;20159;-83
2021/09/27 00:20:31;;;;;;;10.68;7.70;;;16.50;91.60;;;;;;5052426;28;20021;-82
2021/09/27 00:22:57;;;;;;;10.70;7.60;;;16.50;91.70;;;;;;5054122;28;20029;-83
2021/09/27 00:25:26;;;;;;;12.60;7.07;;;16.50;91.70;;;;;;5056088;28;20044;-83
2021/09/27 00:27:51;;;;;;;12.10;8.45;;;16.50;91.70;;;;;;5029561;28;20026;-83
2021/09/27 00:30:19;;;;;;;8.90;6.90;;;16.50;91.70;;;;;;5056132;28;20052;-83
2021/09/27 00:32:45;;;;;;;13.77;8.30;;;16.50;91.70;;;;;;5055958;28;20029;-83
2021/09/27 00:35:14;;;;;;;11.80;8.10;;;16.40;91.70;;;;;;5038183;28;20032;-83
2021/09/27 00:37:40;;;;;;;;;;;16.40;91.80;;;;;;5055642;28;20481;-83
2021/09/27 00:40:10;;;;;;;10.77;7.53;;;16.50;91.80;;;;;;5054243;28;19915;-83
2021/09/27 00:42:35;;;;;;;9.20;7.50;;;16.40;91.80;;;;;;5053443;28;20362;-83
2021/09/27 00:45:03;;;;;;;15.00;7.80;;;16.40;91.90;;;;;;5053070;28;20083;-83
2021/09/27 00:47:28;;;;;;;11.98;7.68;;;16.50;92.00;;;;;;5053067;28;20033;-82
2021/09/27 00:49:55;;;;;;;9.75;7.72;;;16.50;92.00;;;;;;5054115;28;20031;-83
2021/09/27 00:52:21;;;;;;;13.27;7.68;;;16.50;92.00;;;;;;5052632;28;20032;-83
2021/09/27 00:54:48;;;;;;;11.60;8.10;;;16.50;92.10;;;;;;5052840;28;20033;-82
2021/09/27 00:57:20;;;;;;;12.18;8.10;;;16.50;92.40;;;;;;5054286;28;20052;-83
2021/09/27 00:59:50;;;;;;;10.20;7.88;;;16.60;92.10;;;;;;5054912;28;20055;-83
2021/09/27 01:02:16;;;;;;;12.93;8.40;;;16.60;92.00;;;;;;5037200;28;20535;-83
2021/09/27 01:04:41;;;;;;;10.13;7.25;;;16.50;92.00;;;;;;5055338;28;20065;-82
2021/09/27 01:07:28;;;;;;;10.52;7.75;;;16.50;92.10;;;;;;5053762;28;20044;-83
2021/09/27 01:10:06;;;;;;;13.65;8.80;;;16.50;92.10;;;;;;5053916;28;20549;-83
2021/09/27 01:13:02;;;;;;;11.35;7.75;;;16.50;92.10;;;;;;5055249;28;20426;-83
2021/09/27 01:15:50;;;;;;;10.60;6.50;;;16.50;92.20;;;;;;5029491;28;20479;-83
2021/09/27 01:18:48;;;;;;;10.23;6.63;;;16.40;92.10;;;;;;5055465;28;20037;-83
2021/09/27 01:21:23;;;;;;;;;;;16.40;92.10;;;;;;5035086;28;20060;-83
2021/09/27 01:24:25;;;;;;;8.30;7.28;;;16.40;92.00;;;;;;5035785;28;19913;-83
2021/09/27 01:27:21;;;;;;;9.98;7.47;;;16.30;92.10;;;;;;5035470;28;20113;-83
2021/09/27 01:30:25;;;;;;;10.27;7.57;;;16.30;92.20;;;;;;5053080;28;20404;-83
2021/09/27 01:32:58;;;;;;;10.90;7.45;;;16.30;92.20;;;;;;5036305;28;20490;-83
2021/09/27 01:35:48;;;;;;;11.68;7.30;;;16.30;92.20;;;;;;5055697;28;20067;-83
2021/09/27 01:38:25;;;;;;;10.40;7.45;;;16.30;92.20;;;;;;5055222;28;20021;-83
2021/09/27 01:41:17;;;;;;;8.75;7.60;;;16.30;92.20;;;;;;5055465;28;20033;-83
2021/09/27 01:44:03;;;;;;;10.07;7.13;;;16.30;92.20;;;;;;5055283;28;20092;-83
2021/09/27 01:47:00;;;;;;;14.90;7.60;;;16.20;92.20;;;;;;5055231;28;20025;-83
2021/09/27 01:49:31;;;;;;;9.60;7.78;;;16.20;92.30;;;;;;5036333;28;20163;-83
2021/09/27 01:52:23;;;;;;;10.63;7.15;;;16.20;92.40;;;;;;5055311;28;20025;-83
2021/09/27 01:54:55;;;;;;;14.32;7.40;;;16.20;92.40;;;;;;5037047;28;20405;-83
2021/09/27 01:58:02;;;;;;;12.93;7.43;;;16.10;92.30;;;;;;5054932;28;20013;-83
2021/09/27 02:00:36;;;;;;;11.80;7.78;;;16.10;92.30;;;;;;5001530;28;20037;-83
2021/09/27 02:03:31;;;;;;;9.30;6.97;;;16.10;92.30;;;;;;5035179;28;20037;-82
2021/09/27 02:06:22;;;;;;;10.80;7.07;;;16.00;92.40;;;;;;5034163;28;20041;-83
2021/09/27 02:08:56;;;;;;;8.45;6.85;;;16.10;92.50;;;;;;5017225;28;20080;-82
2021/09/27 02:11:38;;;;;;;10.98;6.78;;;16.10;92.50;;;;;;5033776;28;20557;-83
2021/09/27 02:14:14;;;;;;;11.35;7.72;;;16.00;92.50;;;;;;5046946;28;20029;-83
2021/09/27 02:17:03;;;;;;;10.50;7.30;;;16.10;92.50;;;;;;5054508;28;20439;-83
2021/09/27 02:20:05;;;;;;;10.60;7.22;;;16.00;92.40;;;;;;5034647;28;20030;-83
2021/09/27 02:23:00;;;;;;;8.27;7.20;;;16.00;92.40;;;;;;5030681;28;20076;-83
2021/09/27 02:25:33;;;;;;;10.45;7.50;;;16.00;92.40;;;;;;5026537;28;20107;-83
2021/09/27 02:28:03;;;;;;;9.35;7.15;;;16.00;92.40;;;;;;5054568;28;20477;-83
2021/09/27 02:30:56;;;;;;;12.13;8.32;;;16.00;92.40;;;;;;5043330;28;20020;-83
2021/09/27 02:33:55;;;;;;;13.65;8.27;;;16.00;92.60;;;;;;5035600;28;20041;-83
2021/09/27 02:36:29;;;;;;;14.07;8.10;;;16.00;92.60;;;;;;5032959;28;20029;-83
2021/09/27 02:39:07;;;;;;;11.30;8.27;;;16.00;92.60;;;;;;5040684;28;20100;-84
2021/09/27 02:41:47;;;;;;;12.57;8.32;;;16.10;92.70;;;;;;5054409;28;20080;-83
2021/09/27 02:44:13;;;;;;;14.70;8.18;;;16.10;92.70;;;;;;5053897;28;20025;-83
2021/09/27 02:46:44;;;;;;;9.40;7.35;;;16.10;92.60;;;;;;5053401;28;20025;-83
2021/09/27 02:49:14;;;;;;;9.90;7.50;;;16.10;92.60;;;;;;5020208;28;20021;-83
2021/09/27 02:51:44;;;;;;;10.30;7.78;;;16.10;92.60;;;;;;5053035;28;20016;-84
2021/09/27 02:54:11;;;;;;;10.57;7.78;;;16.10;92.60;;;;;;5052711;28;20044;-82
2021/09/27 02:56:56;;;;;;;12.45;7.18;;;16.00;92.60;;;;;;5052681;28;20029;-82
2021/09/27 02:59:48;;;;;;;10.30;7.38;;;16.00;92.60;;;;;;5036912;28;20040;-83
2021/09/27 03:02:26;;;;;;;9.95;7.28;;;16.00;92.60;;;;;;5034304;28;20454;-82
2021/09/27 03:05:17;;;;;;;8.80;7.15;;;16.00;92.60;;;;;;5051550;28;20040;-83
2021/09/27 03:08:24;;;;;;;10.23;7.47;;;15.90;92.90;;;;;;5046411;28;20045;-83
2021/09/27 03:11:00;;;;;;;9.95;7.40;;;15.90;92.60;;;;;;5013868;28;20494;-83
2021/09/27 03:13:41;;;;;;;8.88;7.07;;;15.90;92.60;;;;;;5037374;28;20041;-83
2021/09/27 03:16:39;;;;;;;10.07;7.25;;;15.90;92.60;;;;;;5035464;28;20385;-83
2021/09/27 03:19:36;;;;;;;11.48;7.80;;;15.80;92.90;;;;;;5035428;28;20021;-83
2021/09/27 03:22:17;;;;;;;9.82;8.13;;;15.80;92.60;;;;;;5053656;28;20539;-83
2021/09/27 03:25:17;;;;;;;13.18;8.55;;;15.70;92.60;;;;;;5035716;28;20033;-82
2021/09/27 03:28:01;;;;;;;10.63;7.60;;;15.70;92.50;;;;;;5053140;28;20029;-83
2021/09/27 03:30:46;;;;;;;10.00;7.68;;;15.70;92.50;;;;;;5047992;28;20078;-83
2021/09/27 03:33:21;;;;;;;10.30;8.15;;;15.70;92.50;;;;;;5015799;28;20436;-83
2021/09/27 03:36:08;;;;;;;11.18;7.97;;;15.70;92.50;;;;;;5044883;28;20028;-83
2021/09/27 03:38:41;;;;;;;14.70;7.38;;;15.60;92.50;;;;;;5052114;28;20102;-83
2021/09/27 03:41:40;;;;;;;11.45;7.93;;;15.60;92.40;;;;;;5052603;28;20104;-83
2021/09/27 03:44:21;;;;;;;;;;;15.60;92.50;;;;;;5053093;28;20039;-83
2021/09/27 03:47:00;;;;;;;12.75;8.30;;;15.60;92.40;;;;;;5051984;28;19935;-83
2021/09/27 03:49:31;;;;;;;12.13;7.78;;;15.50;92.50;;;;;;5051510;28;20025;-83
2021/09/27 03:52:07;;;;;;;9.27;7.20;;;15.60;92.60;;;;;;5044704;28;20025;-83
2021/09/27 03:55:08;;;;;;;11.70;7.90;;;15.60;92.70;;;;;;5051420;28;20524;-83
2021/09/27 03:57:49;;;;;;;14.68;9.45;;;15.60;92.70;;;;;;5038095;28;20120;-83
2021/09/27 04:00:24;;;;;;;13.40;8.88;;;15.50;92.70;;;;;;5051016;28;20363;-83
2021/09/27 04:03:30;;;;;;;13.48;9.45;;;15.60;92.80;;;;;;5051881;28;20022;-83
2021/09/27 04:06:20;;;;;;;12.48;8.75;;;15.60;92.90;;;;;;5033661;28;20453;-83
2021/09/27 04:09:06;;;;;;;12.18;8.00;;;15.70;92.90;;;;;;5038031;28;20086;-83
2021/09/27 04:11:55;;;;;;;14.00;9.70;;;15.70;93.20;;;;;;5051701;28;20041;-83
2021/09/27 04:14:59;;;;;;;;;;;15.70;93.00;;;;;;5032203;28;20029;-83
2021/09/27 04:17:57;;;;;;;15.07;9.32;;;15.80;92.80;;;;;;4978237;28;19913;-83
2021/09/27 04:20:45;;;;;;;13.13;9.63;;;15.80;93.00;;;;;;4990489;28;20031;-83
2021/09/27 04:23:30;;;;;;;16.63;8.93;;;15.90;93.10;;;;;;5025296;28;20048;-83
2021/09/27 04:26:02;;;;;;;11.50;8.88;;;15.90;93.10;;;;;;5052342;28;20032;-83
2021/09/27 04:28:48;;;;;;;10.18;8.13;;;15.90;93.10;;;;;;5052677;28;20021;-83
2021/09/27 04:31:23;;;;;;;10.80;8.85;;;16.00;93.20;;;;;;5040443;28;20025;-83
2021/09/27 04:34:12;;;;;;;10.50;8.35;;;16.00;93.20;;;;;;5033677;28;20112;-83
2021/09/27 04:36:40;;;;;;;;;;;16.00;93.20;;;;;;5008819;28;20032;-83
2021/09/27 04:39:19;;;;;;;12.00;9.52;;;16.10;93.10;;;;;;5052605;28;20396;-83
2021/09/27 04:41:55;;;;;;;9.23;7.75;;;16.00;93.10;;;;;;5031337;28;20029;-84
2021/09/27 04:44:29;;;;;;;14.90;10.38;;;16.10;93.20;;;;;;5032694;28;20033;-83
2021/09/27 04:47:08;;;;;;;13.02;8.88;;;16.10;93.20;;;;;;5043466;28;20036;-83
2021/09/27 04:49:50;;;;;;;;;;;16.10;93.20;;;;;;5033223;28;20024;-75
2021/09/27 04:52:30;;;;;;;13.30;8.20;;;16.10;93.10;;;;;;5033086;28;19912;-75
2021/09/27 04:55:06;;;;;;;12.10;8.82;;;16.00;93.20;;;;;;5024811;28;20029;-75
2021/09/27 04:57:37;;;;;;;10.85;9.18;;;16.00;93.20;;;;;;5032073;28;20033;-75
2021/09/27 05:00:24;;;;;;;14.10;9.57;;;15.90;93.20;;;;;;5032506;28;20036;-75
2021/09/27 05:03:18;;;;;;;10.52;8.10;;;15.90;93.20;;;;;;5032749;28;20047;-75
2021/09/27 05:06:25;;;;;;;14.32;8.80;;;15.90;93.30;;;;;;5034619;28;20041;-75
2021/09/27 05:09:23;;;;;;;13.52;10.25;;;15.90;93.30;;;;;;5015690;28;20037;-75
2021/09/27 05:11:49;;;;;;;;;;;15.80;93.20;;;;;;5047204;28;20053;-75
2021/09/27 05:14:20;;;;;;;12.95;8.75;;;15.90;93.20;;;;;;5035954;28;20269;-75
2021/09/27 05:17:16;;;;;;;12.98;9.75;;;15.80;93.30;;;;;;5034924;28;20033;-75
2021/09/27 05:19:54;;;;;;;14.18;9.75;;;15.80;93.30;;;;;;5034843;28;20117;-75
2021/09/27 05:22:34;;;;;;;15.88;10.55;;;15.80;93.30;;;;;;5053885;28;20094;-75
2021/09/27 05:25:12;;;;;;;12.55;9.93;;;15.70;93.30;;;;;;5053909;28;20083;-75
2021/09/27 05:28:09;;;;;;;12.48;9.82;;;15.70;93.30;;;;;;5035692;28;20531;-75
2021/09/27 05:30:55;;;;;;;16.23;11.27;;;15.70;93.30;;;;;;5044940;28;20412;-75
2021/09/27 05:33:49;;;;;;;16.85;10.18;;;15.70;93.30;;;;;;5051700;28;20033;-75
2021/09/27 05:36:24;;;;;;;18.17;10.43;;;15.70;93.40;;;;;;5051450;28;20021;-75
2021/09/27 05:38:58;;;;;;;15.38;11.85;;;15.70;93.40;;;;;;5050984;28;20041;-74
2021/09/27 05:41:56;;;;;;;14.50;10.82;;;15.70;93.50;;;;;;5048521;28;20389;-75
2021/09/27 05:44:46;;;;;;;13.70;10.23;;;15.70;93.60;;;;;;5047816;28;20040;-75
2021/09/27 05:47:25;;;;;;;15.13;10.98;;;15.70;93.50;;;;;;5048481;28;20041;-74
2021/09/27 05:50:02;;;;;;;16.45;10.30;;;15.70;93.50;;;;;;5052574;28;20029;-75
2021/09/27 05:52:38;;;;;;;14.95;10.30;;;15.70;93.50;;;;;;5049837;28;20033;-75
2021/09/27 05:55:32;;;;;;;12.52;10.07;;;15.70;93.50;;;;;;5035661;28;20374;-75
2021/09/27 05:58:17;;;;;;;18.73;11.93;;;15.80;93.60;;;;;;5034757;28;20737;-75
2021/09/27 06:00:55;;;;;;;16.75;11.90;;;15.80;93.60;;;;;;5042235;28;20055;-76
2021/09/27 06:03:46;;;;;;;20.63;10.93;;;15.80;93.60;;;;;;5052757;28;20489;-75
2021/09/27 06:06:26;;;;;;;18.00;11.27;;;15.90;93.60;;;;;;5044635;28;20045;-75
2021/09/27 06:09:28;;;;;;;16.73;12.48;;;15.90;93.60;;;;;;5053437;28;20021;-75
2021/09/27 06:12:18;;;;;;;16.50;11.50;;;15.90;93.60;;;;;;5052496;28;20017;-75
2021/09/27 06:14:44;;;;;;;16.05;11.82;;;16.00;93.70;;;;;;5053283;28;20056;-75
2021/09/27 06:17:16;;;;;;;14.77;11.32;;;16.10;93.60;;;;;;5052980;28;20033;-75
2021/09/27 06:20:05;;;;;;;18.80;12.27;;;16.10;93.60;;;;;;5053030;28;20025;-75
2021/09/27 06:22:51;;;;;;;17.48;12.52;;;16.20;93.70;;;;;;5034439;28;20104;-74
2021/09/27 06:25:36;;;;;;;14.68;11.35;;;16.30;93.60;;;;;;5052260;28;20509;-75
2021/09/27 06:28:07;;;;;;;14.38;11.68;;;16.30;93.50;;;;;;5052875;28;20053;-75
2021/09/27 06:31:01;;;;;;;13.43;11.77;;;16.40;93.50;;;;;;5052858;28;20052;-75
2021/09/27 06:33:27;;;;;;;16.13;10.18;;;16.50;93.50;;;;;;5053298;28;20036;-75
2021/09/27 06:35:56;;;;;;;15.85;11.45;;;16.50;93.40;;;;;;5052188;28;20031;-75
2021/09/27 06:38:29;;;;;;;15.27;11.43;;;16.60;93.40;;;;;;5035310;28;20037;-75
2021/09/27 06:40:56;;;;;;;16.52;12.95;;;16.50;93.40;;;;;;5052542;28;20095;-74
2021/09/27 06:43:24;;;;;;;21.30;12.55;;;16.60;93.30;;;;;;5035129;28;20021;-75
2021/09/27 06:45:51;;;;;;;17.55;11.60;;;16.60;93.30;;;;;;5018313;28;20114;-75
2021/09/27 06:48:19;;;;;;;16.83;11.88;;;16.70;93.40;;;;;;5034831;28;20021;-75
2021/09/27 06:50:45;;;;;;;16.60;12.38;;;16.70;93.40;;;;;;5034762;28;20054;-75
2021/09/27 06:53:11;;;;;;;17.45;11.73;;;16.70;93.30;;;;;;5052036;28;20061;-75
2021/09/27 06:55:36;;;;;;;15.75;11.57;;;16.80;93.30;;;;;;5051377;28;20512;-75
2021/09/27 06:58:02;;;;;;;15.23;11.52;;;16.90;93.20;;;;;;5052517;28;20052;-75
2021/09/27 07:00:28;;;;;;;14.55;11.25;;;17.00;93.00;;;;;;5051253;28;20021;-75
2021/09/27 07:02:54;;;;;;;17.98;11.68;;;17.10;92.90;;;;;;5050794;28;20625;-75
2021/09/27 07:05:20;;;;;;;14.98;11.45;;;17.10;92.80;;;;;;5034269;28;20048;-75
2021/09/27 07:07:45;;;;;;;16.50;11.70;;;17.10;92.80;;;;;;5033611;28;20033;-74
2021/09/27 07:10:15;;;;;;;15.18;11.15;;;17.10;92.80;;;;;;5025877;28;20026;-74
2021/09/27 07:12:40;;;;;;;17.27;11.68;;;17.10;92.80;;;;;;5049163;28;20025;-75
2021/09/27 07:15:07;;;;;;;16.25;12.02;;;17.20;92.70;;;;;;5034173;28;20051;-75
2021/09/27 07:17:33;;;;;;;17.33;11.65;;;17.30;92.70;;;;;;5029622;28;20033;-75
2021/09/27 07:19:59;;;;;;;12.73;11.20;;;17.50;92.50;;;;;;5047784;28;20623;-76
2021/09/27 07:22:25;;;;;;;14.68;10.82;;;17.60;92.30;;;;;;5014508;28;20033;-74
2021/09/27 07:24:53;;;;;;;17.15;11.82;;;17.80;92.20;;;;;;5040714;28;20048;-74
2021/09/27 07:27:19;;;;;;;12.45;11.10;;;17.90;91.90;;;;;;5042882;28;20128;-74
2021/09/27 07:29:45;;;;;;;16.67;10.57;;;18.00;91.70;;;;;;5033853;28;20545;-74
2021/09/27 07:32:11;;;;;;;15.60;10.45;;;18.10;91.60;;;;;;5033203;28;20029;-73
2021/09/27 07:34:36;;;;;;;15.30;11.07;;;18.10;91.40;;;;;;5033864;28;20063;-74
2021/09/27 07:37:04;;;;;;;13.80;10.80;;;18.10;91.50;;;;;;5051583;28;20498;-74
2021/09/27 07:39:31;;;;;;;13.27;10.70;;;18.10;91.60;;;;;;5050244;28;20044;-74
2021/09/27 07:41:57;;;;;;;13.85;11.50;;;18.00;91.70;;;;;;5032615;28;20025;-74
2021/09/27 07:44:23;;;;;;;15.82;12.25;;;18.00;91.70;;;;;;5033512;28;20037;-74
2021/09/27 07:46:48;;;;;;;13.13;10.50;;;18.00;91.50;;;;;;5051454;28;20489;-74
2021/09/27 07:49:14;;;;;;;14.60;11.20;;;17.90;91.70;;;;;;5051180;28;20056;-74
2021/09/27 07:51:41;;;;;;;17.58;12.20;;;17.90;91.80;;;;;;5033678;28;20445;-74
2021/09/27 07:54:07;;;;;;;14.85;11.07;;;18.00;91.80;;;;;;5033595;28;20033;-74
2021/09/27 07:56:33;;;;;;;18.83;11.43;;;18.00;91.70;;;;;;5051449;28;20025;-74
2021/09/27 07:59:00;;;;;;;17.55;11.15;;;18.10;91.60;;;;;;5051326;28;20025;-74
2021/09/27 08:01:26;;;;;;;18.75;12.52;;;18.10;91.60;;;;;;5033781;28;20075;-75
2021/09/27 08:03:52;;;;;;;14.90;10.63;;;18.20;91.40;;;;;;5050994;28;20041;-74
2021/09/27 08:06:18;;;;;;;18.88;10.80;;;18.20;91.40;;;;;;5049925;28;20041;-74
2021/09/27 08:08:43;;;;;;;17.83;10.80;;;18.30;91.30;;;;;;5050073;28;20363;-74
2021/09/27 08:11:09;;;;;;;14.82;11.23;;;18.30;91.30;;;;;;5051189;28;20033;-75
2021/09/27 08:13:35;;;;;;;15.80;10.68;;;18.30;91.30;;;;;;5049828;28;20033;-74
2021/09/27 08:16:01;;;;;;;16.90;11.10;;;18.40;91.30;;;;;;5033405;28;20497;-74
2021/09/27 08:18:27;;;;;;;16.60;11.48;;;18.40;91.30;;;;;;5051179;28;20033;-74
2021/09/27 08:20:56;;;;;;;19.25;10.38;;;18.50;91.20;;;;;;5017099;28;20660;-74
2021/09/27 08:23:23;;;;;;;15.73;10.10;;;18.60;91.10;;;;;;5033106;28;20122;-74
2021/09/27 08:25:50;;;;;;;13.65;10.02;;;18.70;91.00;;;;;;5051166;28;20147;-74
2021/09/27 08:28:19;;;;;;;11.80;9.27;;;18.90;90.80;;;;;;5051240;28;20032;-74
2021/09/27 08:31:01;;;;;;;13.40;9.63;;;19.10;90.50;;;;;;5033401;28;20055;-74
2021/09/27 08:33:28;;;;;;;15.00;9.70;;;19.40;90.20;;;;;;5051350;28;20056;-74
2021/09/27 08:35:54;;;;;;;9.85;8.30;;;19.50;90.00;;;;;;5050712;28;20557;-74
2021/09/27 08:38:26;;;;;;;12.88;9.32;;;19.60;89.80;;;;;;5049973;28;20033;-74
2021/09/27 08:40:51;;;;;;;10.23;8.23;;;19.60;90.00;;;;;;5050865;28;20025;-75
2021/09/27 08:43:37;;;;;;;12.07;9.02;;;19.70;89.40;;;;;;5051523;28;20035;-75
2021/09/27 08:46:26;;;;;;;10.32;8.57;;;19.60;88.90;;;;;;5054368;28;20028;-74
2021/09/27 08:48:59;;;;;;;;;;;19.70;89.10;;;;;;5037408;28;20047;-74
2021/09/27 08:51:26;;;;;;;11.90;8.50;;;19.60;89.10;;;;;;5054095;28;19962;-74
2021/09/27 08:53:52;;;;;;;10.70;8.70;;;19.60;89.30;;;;;;5036327;28;20526;-74
2021/09/27 08:56:30;;;;;;;10.55;8.23;;;19.60;89.40;;;;;;5041432;28;20048;-74
2021/09/27 08:59:19;;;;;;;12.23;8.65;;;19.70;89.50;;;;;;5036944;28;20036;-74
2021/09/27 09:02:22;;;;;;;11.32;8.55;;;19.80;89.20;;;;;;5034816;28;20036;-74
2021/09/27 09:05:09;;;;;;;12.68;8.32;;;19.80;88.90;;;;;;5045849;28;20032;-74
2021/09/27 09:07:46;;;;;;;12.00;8.20;;;19.90;89.00;;;;;;5037215;28;20034;-75
2021/09/27 09:10:14;;;;;;;13.77;7.82;;;19.90;88.90;;;;;;5040827;28;20036;-75
2021/09/27 09:12:58;;;;;;;7.65;6.85;;;20.00;88.90;;;;;;5054416;28;20025;-74
2021/09/27 09:15:28;;;;;;;10.50;7.35;;;20.00;89.10;;;;;;5036486;28;20021;-74
2021/09/27 09:18:10;;;;;;;9.35;7.40;;;20.10;88.90;;;;;;5054373;28;20033;-74
2021/09/27 09:20:57;;;;;;;13.55;6.60;;;20.10;88.60;;;;;;5036420;28;20028;-75
2021/09/27 09:23:29;;;;;;;11.10;6.10;;;20.10;88.30;;;;;;5017864;28;20030;-74
2021/09/27 09:25:58;;;;;;;10.43;6.10;;;20.00;88.80;;;;;;5034280;28;20037;-75
2021/09/27 09:28:24;;;;;;;7.60;4.93;;;20.00;89.30;;;;;;5016483;28;20626;-74
2021/09/27 09:30:55;;;;;;;10.43;4.95;;;20.00;89.10;;;;;;5032736;28;20029;-75
2021/09/27 09:33:49;;;;;;;6.13;3.88;;;20.00;89.10;;;;;;5032807;28;20025;-74
2021/09/27 09:36:25;;;;;;;6.28;3.15;;;20.00;87.80;;;;;;5035284;28;20033;-75
2021/09/27 09:38:51;;;;;;;8.68;3.78;;;20.10;87.10;;;;;;5052534;28;20028;-74
2021/09/27 09:41:18;;;;;;;5.18;3.65;;;20.20;87.10;;;;;;5052335;28;20033;-75
2021/09/27 09:43:47;;;;;;;5.07;3.33;;;20.20;86.80;;;;;;5053179;28;20087;-75
2021/09/27 09:46:31;;;;;;;5.65;3.08;;;20.10;87.00;;;;;;5052964;28;20394;-75
2021/09/27 09:49:09;;;;;;;9.52;3.40;;;20.10;86.70;;;;;;5053462;28;20025;-75
2021/09/27 09:51:41;;;;;;;8.40;3.03;;;20.00;86.70;;;;;;5035327;28;20598;-75
2021/09/27 09:54:20;;;;;;;5.55;2.90;;;20.00;87.00;;;;;;5053041;28;20057;-75
2021/09/27 09:57:15;;;;;;;4.20;3.05;;;19.80;87.40;;;;;;5035689;28;20105;-75
2021/09/27 09:59:52;;;;;;;8.73;3.13;;;19.80;87.60;;;;;;5053409;28;20359;-75
2021/09/27 10:02:21;;;;;;;7.97;3.10;;;19.80;87.80;;;;;;5035415;28;20060;-79
2021/09/27 10:04:53;;;;;;;4.90;2.97;;;19.80;87.60;;;;;;5053651;28;20028;-79
2021/09/27 10:07:25;;;;;;;6.07;2.65;;;19.80;87.80;;;;;;5053889;28;20041;-79
2021/09/27 10:09:51;;;;;;;5.25;2.58;;;19.80;87.90;;;;;;5054337;28;20443;-79
2021/09/27 10:12:42;;;;;;;5.40;2.55;;;19.90;87.50;;;;;;5035632;28;20055;-79
2021/09/27 10:15:14;;;;;;;5.28;2.28;;;19.90;87.20;;;;;;5035277;28;20424;-79
2021/09/27 10:17:40;;;;;;;7.55;2.72;;;20.00;87.00;;;;;;5052538;28;20037;-79
2021/09/27 10:20:06;;;;;;;7.78;2.58;;;20.10;86.40;;;;;;5051762;28;20039;-79
2021/09/27 10:22:37;;;;;;;6.93;2.60;;;20.20;85.90;;;;;;5053775;28;20061;-79
2021/09/27 10:25:28;;;;;;;5.97;2.67;;;20.30;85.00;;;;;;5053071;28;20199;-79
2021/09/27 10:27:55;;;;;;;6.78;2.50;;;20.40;84.90;;;;;;5053794;28;20029;-79
2021/09/27 10:30:36;;;;;;;6.88;2.33;;;20.50;84.30;;;;;;5049213;28;20029;-79
2021/09/27 10:33:10;;;;;;;4.75;2.22;;;20.60;83.70;;;;;;5044076;28;20044;-79
2021/09/27 10:35:46;;;;;;;8.13;2.42;;;20.70;84.20;;;;;;5051699;28;20028;-79
2021/09/27 10:38:27;;;;;;;3.70;2.22;;;20.80;84.10;;;;;;5054173;28;20052;-79
2021/09/27 10:40:53;;;;;;;2.85;2.08;;;20.90;82.70;;;;;;5035399;28;20481;-79
2021/09/27 10:43:24;;;;;;;3.38;2.17;;;20.90;82.90;;;;;;5035986;28;20413;-79
2021/09/27 10:45:55;;;;;;;6.00;2.35;;;21.00;81.60;;;;;;5053611;28;20100;-79
2021/09/27 10:48:22;;;;;;;5.15;1.92;;;21.10;80.80;;;;;;5053340;28;20029;-79
2021/09/27 10:50:58;;;;;;;5.93;2.20;;;21.30;81.10;;;;;;5018979;28;20067;-79
2021/09/27 10:53:43;;;;;;;7.13;2.20;;;21.40;81.30;;;;;;5034843;28;20021;-79
2021/09/27 10:56:29;;;;;;;2.97;2.05;;;21.50;80.40;;;;;;5053044;28;20055;-79
2021/09/27 10:59:09;;;;;;;9.55;2.30;;;21.50;80.50;;;;;;5053014;28;20389;-79
2021/09/27 11:01:35;;;;;;;9.50;2.28;;;21.40;80.20;;;;;;5031948;28;20036;-79
2021/09/27 11:04:01;;;;;;;4.05;2.10;;;21.40;80.00;;;;;;5040928;28;20103;-79
2021/09/27 11:06:47;;;;;;;5.97;2.30;;;21.30;79.80;;;;;;5033522;28;20079;-79
2021/09/27 11:09:24;;;;;;;4.15;2.53;;;21.30;80.90;;;;;;5052252;28;20200;-79
2021/09/27 11:12:12;;;;;;;6.45;2.33;;;21.30;79.70;;;;;;5052192;28;20100;-79
2021/09/27 11:15:02;;;;;;;4.57;2.10;;;21.20;79.20;;;;;;5035184;28;20021;-79
2021/09/27 11:17:44;;;;;;;4.25;2.17;;;21.20;80.10;;;;;;5051665;28;20025;-77
2021/09/27 11:20:16;;;;;;;6.47;2.10;;;21.20;80.70;;;;;;5025328;28;20033;-77
2021/09/27 11:22:56;;;;;;;8.40;2.30;;;21.20;80.30;;;;;;5046008;28;20079;-77
2021/09/27 11:25:21;;;;;;;3.70;1.90;;;21.10;79.40;;;;;;5046626;28;20021;-77
2021/09/27 11:28:11;;;;;;;4.05;1.88;;;21.00;80.10;;;;;;5030427;28;20512;-77
2021/09/27 11:30:39;;;;;;;5.88;2.00;;;21.00;80.00;;;;;;5047825;28;20039;-77
2021/09/27 11:33:34;;;;;;;6.15;2.38;;;21.00;80.70;;;;;;5030201;28;20021;-77
2021/09/27 11:36:18;;;;;;;4.15;1.88;;;20.90;80.60;;;;;;5034248;28;20051;-77
2021/09/27 11:39:11;;;;;;;4.10;1.73;;;20.90;81.00;;;;;;5045788;28;20025;-77
2021/09/27 11:41:38;;;;;;;4.90;1.90;;;20.90;80.90;;;;;;5029204;28;20025;-77
2021/09/27 11:44:29;;;;;;;6.30;2.10;;;20.90;80.60;;;;;;5047605;28;20056;-78
2021/09/27 11:47:09;;;;;;;3.42;2.13;;;21.00;79.90;;;;;;5029869;28;20021;-78
2021/09/27 11:50:05;;;;;;;3.47;2.00;;;20.90;80.50;;;;;;5040504;28;20028;-77
2021/09/27 11:52:56;;;;;;;6.28;2.30;;;21.00;80.00;;;;;;5033184;28;20111;-77
2021/09/27 11:55:32;;;;;;;7.32;2.00;;;21.00;80.00;;;;;;5033900;28;20397;-77
2021/09/27 11:58:03;;;;;;;3.15;1.80;;;21.00;80.40;;;;;;5034218;28;20032;-77
2021/09/27 12:00:40;;;;;;;3.67;2.08;;;20.90;81.50;;;;;;5034852;28;20051;-77
2021/09/27 12:03:11;;;;;;;4.63;1.95;;;21.00;81.10;;;;;;5034755;28;20068;-77
2021/09/27 12:06:11;;;;;;;2.40;1.88;;;21.00;81.30;;;;;;5031423;28;20034;-77
2021/09/27 12:09:03;;;;;;;4.53;2.00;;;21.00;80.70;;;;;;5032522;28;20128;-78
2021/09/27 12:11:36;;;;;;;5.63;1.83;;;20.90;80.30;;;;;;5025904;28;20041;-78
2021/09/27 12:14:04;;;;;;;4.70;2.00;;;21.00;80.40;;;;;;5031359;28;20026;-78
2021/09/27 12:16:32;;;;;;;8.32;1.98;;;20.90;80.80;;;;;;5032518;28;20030;-77
2021/09/27 12:19:18;;;;;;;4.45;2.08;;;21.00;80.70;;;;;;5036337;28;20038;-78
2021/09/27 12:22:12;;;;;;;7.45;1.80;;;21.00;80.60;;;;;;5035127;28;20025;-77
2021/09/27 12:24:41;;;;;;;3.45;1.92;;;21.10;80.70;;;;;;5034071;28;20040;-78
2021/09/27 12:27:21;;;;;;;7.95;2.00;;;21.10;80.50;;;;;;5035250;28;20030;-77
2021/09/27 12:30:07;;;;;;;4.28;1.88;;;21.20;79.50;;;;;;5036607;28;20056;-77
2021/09/27 12:32:56;;;;;;;8.45;1.95;;;21.20;79.90;;;;;;5035279;28;20085;-77
2021/09/27 12:35:36;;;;;;;7.93;1.58;;;21.20;78.80;;;;;;5051745;28;20493;-78
2021/09/27 12:38:02;;;;;;;3.17;1.63;;;21.30;79.10;;;;;;5036350;28;20394;-77
2021/09/27 12:40:46;;;;;;;7.25;1.75;;;21.30;78.30;;;;;;5036330;28;20026;-77
2021/09/27 12:43:15;;;;;;;4.00;1.92;;;21.40;78.70;;;;;;5035085;28;20026;-77
2021/09/27 12:45:53;;;;;;;2.88;1.40;;;21.40;77.90;;;;;;5036541;28;20030;-77
2021/09/27 12:48:25;;;;;;;4.18;1.75;;;21.40;78.00;;;;;;5035296;28;20036;-77
2021/09/27 12:51:09;;;;;;;5.30;1.80;;;21.50;78.40;;;;;;5034262;28;20040;-77
2021/09/27 12:53:55;;;;;;;5.05;1.60;;;21.50;78.00;;;;;;5034951;28;20031;-77
2021/09/27 12:56:21;;;;;;;3.70;1.67;;;21.60;78.70;;;;;;5034470;28;20164;-77
2021/09/27 12:58:59;;;;;;;3.15;1.80;;;21.70;78.70;;;;;;5034754;28;20049;-77
2021/09/27 13:01:27;;;;;;;4.03;1.45;;;21.80;77.30;;;;;;5035967;28;20025;-77
2021/09/27 13:04:06;;;;;;;3.50;1.60;;;21.80;77.30;;;;;;5035895;28;20490;-77
2021/09/27 13:06:34;;;;;;;5.55;1.60;;;21.90;76.70;;;;;;5049120;28;20064;-78
2021/09/27 13:09:20;;;;;;;5.65;1.65;;;21.80;76.10;;;;;;5055341;28;20131;-77
2021/09/27 13:11:51;;;;;;;5.00;1.30;;;21.80;75.50;;;;;;5037615;28;20025;-77
2021/09/27 13:14:29;;;;;;;5.00;1.52;;;21.70;76.00;;;;;;5053922;28;20017;-78
2021/09/27 13:17:08;;;;;;;2.28;1.35;;;21.60;75.70;;;;;;5037255;28;20393;-77
2021/09/27 13:19:56;;;;;;;5.85;2.17;;;21.60;76.50;;;;;;5053482;28;20041;-77
2021/09/27 13:22:29;;;;;;;5.07;1.77;;;21.50;77.80;;;;;;5034900;28;20489;-77
2021/09/27 13:25:06;;;;;;;2.95;1.60;;;21.50;77.70;;;;;;5035223;28;20022;-77
2021/09/27 13:27:40;;;;;;;3.70;1.42;;;21.50;78.10;;;;;;5035008;28;20049;-79
2021/09/27 13:30:18;;;;;;;3.53;1.67;;;21.50;78.40;;;;;;5034354;28;20382;-79
2021/09/27 13:33:28;;;;;;;9.83;1.67;;;21.40;77.90;;;;;;5034846;28;20029;-79